Appleton, Washington
Current Conditions -  °F | °C
As of 1:29 AM on Friday 31 Oct 2014 (Local Time) from KDLS Reporting Station
Light Rain Light Rain  
Wind Chill: 54°   Ceiling: 2100
Heat Index: 54°   Visibility: 3mi
Dew Point: 53°   Wind: 0mph
Humidity: 97%   Direction: NA
Pressure: 29.78"   Gusts: NA
Location:  45.81°N, 121.27°W
Report Text: KDLS 310829Z AUTO 00000KT 3SM -RA BR BKN021 BKN060 OVC070 12/12 A2978 RMK AO2 P0004 T01220117
Loading
Personal Weather Stations






























Interactive Weather Map
Tropical Storm Tracking
New forecast layout! Learn more

10-Day Weather Forecast

Advertisements
Track Severe Weather on mobile